CheckWX is a tool to help pilots better visualize weather data.  It is not intended as a substitute for an official pre-flight weather briefing.

03:22:02 UTC

K3L4 METAR
Grand Chenier Airport
Grand Chenier, Louisiana, USA
Current

27 mins ago

K3L4 260255Z AUTO 14008KT 10SM 26/24 A3007 RMK A01
Observed
May-26 @ 02:55 UTC
Wind
  • 140° at 8 KTS
Visibility
10 SM
Temperature
26°C / 79°F
Dewpoint
24°C / 75°F
Humidity
89%
Altimeter
30.07" Hg
Pressure
1018.32 hPa
Previous

47 mins ago

K3L4 260235Z AUTO 14007KT 10SM 26/24 A3007 RMK A01
Observed
May-26 @ 02:35 UTC
Wind
  • 140° at 7 KTS
Visibility
10 SM
Temperature
26°C / 79°F
Dewpoint
24°C / 75°F
Humidity
89%
Altimeter
30.07" Hg
Pressure
1018.32 hPa
Previous

1 hour ago

K3L4 260215Z AUTO 14007KT 10SM 27/24 A3006 RMK A01
Observed
May-26 @ 02:15 UTC
Wind
  • 140° at 7 KTS
Visibility
10 SM
Temperature
27°C / 81°F
Dewpoint
24°C / 75°F
Heat Index
31°C / 87°F
Humidity
84%
Altimeter
30.06" Hg
Pressure
1017.92 hPa